Time,TemperatureF,DewpointF,PressureIn,WindDirection,WindDirectionDegrees,WindSpeedMPH,WindSpeedGustMPH,Humidity,HourlyPrecipIn,Conditions,Clouds,dailyrainin,SoftwareType,DateUTC
2013-09-01 00:00:00,69.9,64.8,30.13,SE,135,0.0,0.0,84,0.00,,,0.00,WUHU216HW,2013-09-01 04:00:00,
2013-09-01 00:05:00,69.9,64.8,30.13,SE,135,0.0,0.0,84,0.00,,,0.00,WUHU216HW,2013-09-01 04:05:00,
2013-09-01 00:10:00,69.9,64.8,30.13,SE,135,0.0,0.0,84,0.00,,,0.00,WUHU216HW,2013-09-01 04:10:00,
2013-09-01 00:15:00,69.9,65.2,30.13,SE,135,0.0,0.0,85,0.00,,,0.00,WUHU216HW,2013-09-01 04:15:00,
2013-09-01 00:20:00,69.9,65.2,30.13,SE,135,0.0,0.0,85,0.00,,,0.00,WUHU216HW,2013-09-01 04:20:00,
2013-09-01 00:25:00,69.9,65.2,30.13,SE,135,0.0,0.0,85,0.00,,,0.00,WUHU216HW,2013-09-01 04:25:00,
2013-09-01 00:30:00,69.8,65.0,30.12,SE,135,0.0,0.0,85,0.00,,,0.00,WUHU216HW,2013-09-01 04:30:00,
2013-09-01 00:35:00,69.8,65.0,30.12,SE,135,0.0,0.0,85,0.00,,,0.00,WUHU216HW,2013-09-01 04:35:00,
2013-09-01 00:40:00,69.8,65.0,30.12,SE,135,0.0,0.0,85,0.00,,,0.00,WUHU216HW,2013-09-01 04:40:00,
2013-09-01 00:45:00,69.8,65.0,30.13,SE,135,0.0,0.0,85,0.00,,,0.00,WUHU216HW,2013-09-01 04:45:00,
2013-09-01 00:50:00,69.6,65.1,30.13,NW,315,0.0,0.0,86,0.00,,,0.00,WUHU216HW,2013-09-01 04:50:00,
2013-09-01 00:55:00,69.6,65.1,30.12,NE,45,0.0,0.0,86,0.00,,,0.00,WUHU216HW,2013-09-01 04:55:00,
2013-09-01 01:00:00,69.6,65.1,30.12,NE,45,0.0,0.0,86,0.00,,,0.00,WUHU216HW,2013-09-01 05:00:00,
2013-09-01 01:05:00,69.6,65.1,30.11,NE,45,0.0,0.0,86,0.00,,,0.00,WUHU216HW,2013-09-01 05:05:00,
2013-09-01 01:10:00,69.6,65.1,30.11,NE,45,0.0,0.0,86,0.00,,,0.00,WUHU216HW,2013-09-01 05:10:00,
2013-09-01 01:15:00,69.6,65.1,30.11,NE,45,0.0,0.0,86,0.00,,,0.00,WUHU216HW,2013-09-01 05:15:00,
2013-09-01 01:20:00,69.6,65.1,30.10,SSE,158,0.0,0.0,86,0.00,,,0.00,WUHU216HW,2013-09-01 05:20:00,
2013-09-01 01:25:00,69.6,65.1,30.10,SSE,158,0.0,0.0,86,0.00,,,0.00,WUHU216HW,2013-09-01 05:25:00,
2013-09-01 01:30:00,69.6,65.1,30.10,SSE,158,0.0,0.0,86,0.00,,,0.00,WUHU216HW,2013-09-01 05:30:00,
2013-09-01 01:40:00,69.6,65.1,30.10,SSE,158,0.0,0.0,86,0.00,,,0.00,WUHU216HW,2013-09-01 05:40:00,
2013-09-01 01:50:00,69.6,65.1,30.09,SSE,158,0.0,0.0,86,0.00,,,0.00,WUHU216HW,2013-09-01 05:50:00,
2013-09-01 01:55:00,69.6,65.1,30.10,SSE,158,0.0,0.0,86,0.00,,,0.00,WUHU216HW,2013-09-01 05:55:00,
2013-09-01 02:00:00,69.6,65.1,30.10,SSE,158,0.0,0.0,86,0.00,,,0.00,WUHU216HW,2013-09-01 06:00:00,
2013-09-01 02:05:00,69.8,65.3,30.10,SSE,158,0.0,0.0,86,0.00,,,0.00,WUHU216HW,2013-09-01 06:05:00,
2013-09-01 02:10:00,69.6,65.1,30.10,SSE,158,0.0,0.0,86,0.00,,,0.00,WUHU216HW,2013-09-01 06:10:00,
2013-09-01 02:15:00,69.6,65.1,30.10,SSE,158,0.0,0.0,86,0.00,,,0.00,WUHU216HW,2013-09-01 06:15:00,
2013-09-01 02:20:00,69.6,65.1,30.10,SSE,158,0.0,0.0,86,0.00,,,0.00,WUHU216HW,2013-09-01 06:20:00,
2013-09-01 02:25:00,69.6,65.1,30.10,SSE,158,0.0,0.0,86,0.00,,,0.00,WUHU216HW,2013-09-01 06:25:00,
2013-09-01 02:30:00,69.6,65.1,30.10,SSE,158,0.0,0.0,86,0.00,,,0.00,WUHU216HW,2013-09-01 06:30:00,
2013-09-01 02:35:00,69.6,65.1,30.10,SSE,158,0.0,0.0,86,0.00,,,0.00,WUHU216HW,2013-09-01 06:35:00,
2013-09-01 02:40:00,69.6,65.1,30.10,SSE,158,0.0,0.0,86,0.00,,,0.00,WUHU216HW,2013-09-01 06:40:00,
2013-09-01 02:45:00,69.6,65.1,30.09,SSE,158,0.0,0.0,86,0.00,,,0.00,WUHU216HW,2013-09-01 06:45:00,
2013-09-01 02:50:00,69.6,65.1,30.09,SSE,158,0.0,0.0,86,0.00,,,0.00,WUHU216HW,2013-09-01 06:50:00,
2013-09-01 02:55:00,69.4,65.0,30.09,SSE,158,0.0,0.0,86,0.00,,,0.00,WUHU216HW,2013-09-01 06:55:00,
2013-09-01 03:00:00,69.4,65.0,30.09,SSE,158,0.0,0.0,86,0.00,,,0.00,WUHU216HW,2013-09-01 07:00:00,
2013-09-01 03:05:00,69.4,65.0,30.09,SSE,158,0.0,0.0,86,0.00,,,0.00,WUHU216HW,2013-09-01 07:05:00,
2013-09-01 03:10:00,69.2,64.8,30.09,SSE,158,0.0,0.0,86,0.00,,,0.00,WUHU216HW,2013-09-01 07:10:00,
2013-09-01 03:15:00,69.0,65.0,30.10,SSE,158,0.0,0.0,87,0.00,,,0.00,WUHU216HW,2013-09-01 07:15:00,
2013-09-01 03:20:00,69.0,65.0,30.09,SSE,158,0.0,0.0,87,0.00,,,0.00,WUHU216HW,2013-09-01 07:20:00,
2013-09-01 03:25:00,68.9,64.8,30.10,SSE,158,0.0,0.0,87,0.00,,,0.00,WUHU216HW,2013-09-01 07:25:00,
2013-09-01 03:30:00,68.7,64.6,30.09,SSE,158,0.0,0.0,87,0.00,,,0.00,WUHU216HW,2013-09-01 07:30:00,
2013-09-01 03:35:00,68.7,64.6,30.10,SSE,158,0.0,0.0,87,0.00,,,0.00,WUHU216HW,2013-09-01 07:35:00,
2013-09-01 03:40:00,68.7,64.6,30.10,SSE,158,0.0,0.0,87,0.00,,,0.00,WUHU216HW,2013-09-01 07:40:00,
2013-09-01 03:46:00,68.7,64.6,30.10,SSE,158,0.0,0.0,87,0.00,,,0.00,WUHU216HW,2013-09-01 07:46:00,
2013-09-01 03:51:00,68.7,64.6,30.10,SSE,158,0.0,0.0,87,0.00,,,0.00,WUHU216HW,2013-09-01 07:51:00,
2013-09-01 03:56:00,68.5,64.4,30.10,SSE,158,0.0,0.0,87,0.00,,,0.00,WUHU216HW,2013-09-01 07:56:00,
2013-09-01 04:01:00,68.5,64.4,30.11,SSE,158,0.0,0.0,87,0.00,,,0.00,WUHU216HW,2013-09-01 08:01:00,
2013-09-01 04:06:00,68.5,64.4,30.11,SSE,158,0.0,0.0,87,0.00,,,0.00,WUHU216HW,2013-09-01 08:06:00,
2013-09-01 04:11:00,68.5,64.4,30.11,SSE,158,0.0,0.0,87,0.00,,,0.00,WUHU216HW,2013-09-01 08:11:00,
2013-09-01 04:16:00,68.5,64.4,30.11,SSE,158,0.0,0.0,87,0.00,,,0.00,WUHU216HW,2013-09-01 08:16:00,
2013-09-01 04:21:00,68.5,64.4,30.11,SSE,158,0.0,0.0,87,0.00,,,0.00,WUHU216HW,2013-09-01 08:21:00,
2013-09-01 04:26:00,68.5,64.4,30.10,SSE,158,0.0,0.0,87,0.00,,,0.00,WUHU216HW,2013-09-01 08:26:00,
2013-09-01 04:31:00,68.3,64.3,30.11,SSE,158,0.0,0.0,87,0.00,,,0.00,WUHU216HW,2013-09-01 08:31:00,
2013-09-01 04:36:00,68.3,64.6,30.11,SSE,158,0.0,0.0,88,0.00,,,0.00,WUHU216HW,2013-09-01 08:36:00,
2013-09-01 04:41:00,68.3,64.6,30.11,SSE,158,0.0,0.0,88,0.00,,,0.00,WUHU216HW,2013-09-01 08:41:00,
2013-09-01 04:46:00,68.5,64.8,30.10,SSE,158,0.0,0.0,88,0.00,,,0.00,WUHU216HW,2013-09-01 08:46:00,
2013-09-01 04:51:00,68.5,64.8,30.10,SSE,158,0.0,0.0,88,0.00,,,0.00,WUHU216HW,2013-09-01 08:51:00,
2013-09-01 04:56:00,68.5,64.8,30.10,SSE,158,0.0,0.0,88,0.00,,,0.00,WUHU216HW,2013-09-01 08:56:00,
2013-09-01 05:01:00,68.5,64.8,30.10,SSE,158,0.0,0.0,88,0.00,,,0.00,WUHU216HW,2013-09-01 09:01:00,
2013-09-01 05:06:00,68.5,64.8,30.11,SSE,158,0.0,0.0,88,0.00,,,0.00,WUHU216HW,2013-09-01 09:06:00,
2013-09-01 05:11:00,68.5,64.8,30.10,SSE,158,0.0,0.0,88,0.00,,,0.00,WUHU216HW,2013-09-01 09:11:00,
2013-09-01 05:16:00,68.5,64.8,30.10,SSE,158,0.0,0.0,88,0.00,,,0.00,WUHU216HW,2013-09-01 09:16:00,
2013-09-01 05:21:00,68.5,64.8,30.10,SSE,158,0.0,0.0,88,0.00,,,0.00,WUHU216HW,2013-09-01 09:21:00,
2013-09-01 05:26:00,68.5,64.8,30.10,SSE,158,0.0,0.0,88,0.00,,,0.00,WUHU216HW,2013-09-01 09:26:00,
2013-09-01 05:31:00,68.5,64.8,30.10,SSE,158,0.0,0.0,88,0.00,,,0.00,WUHU216HW,2013-09-01 09:31:00,
2013-09-01 05:36:00,68.5,64.8,30.10,SSE,158,0.0,0.0,88,0.00,,,0.00,WUHU216HW,2013-09-01 09:36:00,
2013-09-01 05:41:00,68.5,64.8,30.10,SSE,158,0.0,0.0,88,0.00,,,0.00,WUHU216HW,2013-09-01 09:41:00,
2013-09-01 05:46:00,68.5,64.8,30.10,SSE,158,0.0,0.0,88,0.00,,,0.00,WUHU216HW,2013-09-01 09:46:00,
2013-09-01 05:51:00,68.5,64.8,30.10,SSE,158,0.0,0.0,88,0.00,,,0.00,WUHU216HW,2013-09-01 09:51:00,
2013-09-01 05:56:00,68.5,64.8,30.10,SSE,158,0.0,0.0,88,0.00,,,0.00,WUHU216HW,2013-09-01 09:56:00,
2013-09-01 06:01:00,68.5,64.8,30.10,SSE,158,0.0,0.0,88,0.00,,,0.00,WUHU216HW,2013-09-01 10:01:00,
2013-09-01 06:06:00,68.5,64.8,30.09,SSE,158,0.0,0.0,88,0.00,,,0.00,WUHU216HW,2013-09-01 10:06:00,
2013-09-01 06:11:00,68.5,64.8,30.10,SSE,158,0.0,0.0,88,0.00,,,0.00,WUHU216HW,2013-09-01 10:11:00,
2013-09-01 06:16:00,68.5,64.8,30.10,SSE,158,0.0,0.0,88,0.00,,,0.00,WUHU216HW,2013-09-01 10:16:00,
2013-09-01 06:21:00,68.5,64.8,30.10,SSE,158,0.0,0.0,88,0.00,,,0.00,WUHU216HW,2013-09-01 10:21:00,
2013-09-01 06:26:00,68.5,64.8,30.09,SSE,158,0.0,0.0,88,0.00,,,0.00,WUHU216HW,2013-09-01 10:26:00,
2013-09-01 06:31:00,68.3,64.6,30.09,SSE,158,0.0,0.0,88,0.00,,,0.00,WUHU216HW,2013-09-01 10:31:00,
2013-09-01 06:36:00,68.3,64.6,30.09,SSE,158,0.0,0.0,88,0.00,,,0.00,WUHU216HW,2013-09-01 10:36:00,
2013-09-01 06:41:00,68.1,64.4,30.09,SSE,158,0.0,0.0,88,0.00,,,0.00,WUHU216HW,2013-09-01 10:41:00,
2013-09-01 06:46:00,68.1,64.4,30.09,SSE,158,0.0,0.0,88,0.00,,,0.00,WUHU216HW,2013-09-01 10:46:00,
2013-09-01 06:51:00,68.1,64.4,30.09,SSE,158,0.0,0.0,88,0.00,,,0.00,WUHU216HW,2013-09-01 10:51:00,
2013-09-01 06:56:00,68.1,64.7,30.09,SSE,158,0.0,0.0,89,0.00,,,0.00,WUHU216HW,2013-09-01 10:56:00,
2013-09-01 07:01:00,68.1,64.7,30.09,SSE,158,0.0,0.0,89,0.00,,,0.00,WUHU216HW,2013-09-01 11:01:00,
2013-09-01 07:06:00,68.1,64.7,30.09,SSE,158,0.0,0.0,89,0.00,,,0.00,WUHU216HW,2013-09-01 11:06:00,
2013-09-01 07:11:00,68.1,64.7,30.10,SSE,158,0.0,0.0,89,0.00,,,0.00,WUHU216HW,2013-09-01 11:11:00,
2013-09-01 07:16:00,68.1,64.7,30.10,SSE,158,0.0,0.0,89,0.00,,,0.00,WUHU216HW,2013-09-01 11:16:00,
2013-09-01 07:21:00,68.1,64.7,30.11,SSE,158,0.0,0.0,89,0.00,,,0.00,WUHU216HW,2013-09-01 11:21:00,
2013-09-01 07:26:00,68.1,64.7,30.11,SSE,158,0.0,0.0,89,0.00,,,0.00,WUHU216HW,2013-09-01 11:26:00,
2013-09-01 07:31:00,68.1,64.7,30.11,SSE,158,0.0,0.0,89,0.00,,,0.00,WUHU216HW,2013-09-01 11:31:00,
2013-09-01 07:36:00,68.1,64.7,30.11,SSE,158,0.0,0.0,89,0.00,,,0.00,WUHU216HW,2013-09-01 11:36:00,
2013-09-01 07:41:00,68.1,64.7,30.11,SSE,158,0.0,0.0,89,0.00,,,0.00,WUHU216HW,2013-09-01 11:41:00,
2013-09-01 07:46:00,68.3,64.9,30.11,SSE,158,0.0,0.0,89,0.00,,,0.00,WUHU216HW,2013-09-01 11:46:00,
2013-09-01 07:51:00,68.3,64.9,30.11,SSE,158,0.0,0.0,89,0.00,,,0.00,WUHU216HW,2013-09-01 11:51:00,
2013-09-01 07:56:00,68.3,64.9,30.11,SSE,158,0.0,0.0,89,0.00,,,0.00,WUHU216HW,2013-09-01 11:56:00,
2013-09-01 08:01:00,68.3,64.9,30.11,SSE,158,0.0,0.0,89,0.00,,,0.00,WUHU216HW,2013-09-01 12:01:00,
2013-09-01 08:06:00,68.5,65.1,30.11,SSE,158,0.0,0.0,89,0.00,,,0.00,WUHU216HW,2013-09-01 12:06:00,
2013-09-01 08:11:00,68.5,65.1,30.11,SSE,158,0.0,0.0,89,0.00,,,0.00,WUHU216HW,2013-09-01 12:11:00,
2013-09-01 08:16:00,68.5,65.1,30.11,SSE,158,0.0,0.0,89,0.00,,,0.00,WUHU216HW,2013-09-01 12:16:00,
2013-09-01 08:21:00,68.7,65.3,30.12,SSE,158,0.0,0.0,89,0.00,,,0.00,WUHU216HW,2013-09-01 12:21:00,
2013-09-01 08:26:00,68.7,65.3,30.12,SSE,158,0.0,0.0,89,0.00,,,0.00,WUHU216HW,2013-09-01 12:26:00,
2013-09-01 08:31:00,68.9,65.4,30.12,SSE,158,0.0,0.0,89,0.00,,,0.00,WUHU216HW,2013-09-01 12:31:00,
2013-09-01 08:36:00,68.9,65.4,30.11,SSE,158,0.0,0.0,89,0.00,,,0.00,WUHU216HW,2013-09-01 12:36:00,
2013-09-01 08:41:00,69.0,65.6,30.11,SSE,158,0.0,0.0,89,0.00,,,0.00,WUHU216HW,2013-09-01 12:41:00,
2013-09-01 08:46:00,69.0,65.6,30.11,SSE,158,0.0,0.0,89,0.00,,,0.00,WUHU216HW,2013-09-01 12:46:00,
2013-09-01 08:51:00,69.2,65.8,30.11,SSE,158,0.0,0.0,89,0.00,,,0.00,WUHU216HW,2013-09-01 12:51:00,
2013-09-01 08:56:00,69.6,66.2,30.11,SSE,158,0.0,0.0,89,0.00,,,0.00,WUHU216HW,2013-09-01 12:56:00,
2013-09-01 09:01:00,69.8,66.3,30.11,SSE,158,0.0,0.0,89,0.00,,,0.00,WUHU216HW,2013-09-01 13:01:00,
2013-09-01 09:06:00,69.9,66.5,30.11,SSE,158,0.0,0.0,89,0.00,,,0.00,WUHU216HW,2013-09-01 13:06:00,
2013-09-01 09:11:00,70.1,66.7,30.11,SSE,158,0.0,0.0,89,0.00,,,0.00,WUHU216HW,2013-09-01 13:11:00,
2013-09-01 09:16:00,70.3,66.9,30.11,SSE,158,0.0,0.0,89,0.00,,,0.00,WUHU216HW,2013-09-01 13:16:00,
2013-09-01 09:21:00,70.3,66.9,30.11,SSE,158,0.0,0.0,89,0.00,,,0.00,WUHU216HW,2013-09-01 13:21:00,
2013-09-01 09:26:00,70.3,66.5,30.12,SSE,158,0.0,0.0,88,0.00,,,0.00,WUHU216HW,2013-09-01 13:26:00,
2013-09-01 09:31:00,70.3,66.5,30.11,SSE,158,0.0,0.0,88,0.00,,,0.00,WUHU216HW,2013-09-01 13:31:00,
2013-09-01 09:36:00,70.5,67.1,30.12,South,180,0.0,0.0,89,0.00,,,0.00,WUHU216HW,2013-09-01 13:36:00,
2013-09-01 09:41:00,70.5,66.7,30.12,South,180,0.0,0.0,88,0.00,,,0.00,WUHU216HW,2013-09-01 13:41:00,
2013-09-01 09:46:00,70.5,66.7,30.11,West,270,0.0,0.0,88,0.00,,,0.00,WUHU216HW,2013-09-01 13:46:00,
2013-09-01 09:51:00,70.5,66.9,30.12,West,270,0.0,0.0,88,0.00,,,0.00,WUHU216HW,2013-09-01 13:51:00,
2013-09-01 09:56:00,70.7,66.9,30.11,West,270,0.0,0.0,88,0.00,,,0.00,WUHU216HW,2013-09-01 13:56:00,
2013-09-01 10:01:00,70.7,66.9,30.11,West,270,0.0,0.0,88,0.00,,,0.00,WUHU216HW,2013-09-01 14:01:00,
2013-09-01 10:06:00,70.8,67.1,30.11,West,270,0.0,0.0,88,0.00,,,0.00,WUHU216HW,2013-09-01 14:06:00,
2013-09-01 10:11:00,71.2,67.4,30.11,West,270,0.0,0.0,88,0.00,,,0.00,WUHU216HW,2013-09-01 14:11:00,
2013-09-01 10:16:00,71.2,67.4,30.11,West,270,0.0,0.0,88,0.00,,,0.00,WUHU216HW,2013-09-01 14:16:00,
2013-09-01 10:21:00,71.6,67.8,30.11,West,270,0.0,0.0,88,0.00,,,0.00,WUHU216HW,2013-09-01 14:21:00,
2013-09-01 10:26:00,71.9,68.2,30.11,West,270,0.0,0.0,88,0.00,,,0.00,WUHU216HW,2013-09-01 14:26:00,
2013-09-01 10:31:00,72.1,68.3,30.11,West,270,0.0,0.0,88,0.00,,,0.00,WUHU216HW,2013-09-01 14:31:00,
2013-09-01 10:36:00,72.5,68.7,30.11,West,270,0.0,0.0,88,0.00,,,0.00,WUHU216HW,2013-09-01 14:36:00,
2013-09-01 10:41:00,72.8,69.1,30.11,West,270,0.0,0.0,88,0.00,,,0.00,WUHU216HW,2013-09-01 14:41:00,
2013-09-01 10:46:00,73.0,68.9,30.11,West,270,0.0,0.0,87,0.00,,,0.00,WUHU216HW,2013-09-01 14:46:00,
2013-09-01 10:51:00,73.4,69.3,30.11,West,270,0.0,0.0,87,0.00,,,0.00,WUHU216HW,2013-09-01 14:51:00,
2013-09-01 10:56:00,73.9,69.8,30.11,West,270,0.0,0.0,87,0.00,,,0.00,WUHU216HW,2013-09-01 14:56:00,
2013-09-01 11:01:00,74.3,69.8,30.11,WNW,293,0.0,0.0,86,0.00,,,0.00,WUHU216HW,2013-09-01 15:01:00,
2013-09-01 11:06:00,74.8,70.0,30.11,WNW,293,0.0,0.0,85,0.00,,,0.00,WUHU216HW,2013-09-01 15:06:00,
2013-09-01 11:11:00,75.3,70.5,30.11,WNW,293,0.0,0.0,85,0.00,,,0.00,WUHU216HW,2013-09-01 15:11:00,
2013-09-01 11:16:00,75.7,70.9,30.11,WNW,293,0.0,0.0,85,0.00,,,0.00,WUHU216HW,2013-09-01 15:16:00,
2013-09-01 11:21:00,76.6,71.4,30.10,West,270,0.0,0.0,84,0.00,,,0.00,WUHU216HW,2013-09-01 15:21:00,
2013-09-01 11:26:00,77.0,71.7,30.11,WSW,248,0.0,0.0,84,0.00,,,0.00,WUHU216HW,2013-09-01 15:26:00,
2013-09-01 11:31:00,77.5,72.3,30.10,WSW,248,0.0,0.0,84,0.00,,,0.00,WUHU216HW,2013-09-01 15:31:00,
2013-09-01 11:36:00,78.4,72.8,30.10,SW,225,0.0,0.0,83,0.00,,,0.00,WUHU216HW,2013-09-01 15:36:00,
2013-09-01 11:41:00,78.8,72.5,30.09,SW,225,0.0,0.0,81,0.00,,,0.00,WUHU216HW,2013-09-01 15:41:00,
2013-09-01 11:47:00,79.3,73.0,30.10,SSW,203,0.0,0.0,81,0.00,,,0.00,WUHU216HW,2013-09-01 15:47:00,
2013-09-01 11:52:00,80.2,73.1,30.10,SSE,158,0.0,0.0,79,0.00,,,0.00,WUHU216HW,2013-09-01 15:52:00,
2013-09-01 11:57:00,80.4,72.9,30.09,SSE,158,0.0,0.0,78,0.00,,,0.00,WUHU216HW,2013-09-01 15:57:00,
2013-09-01 12:02:00,80.9,73.0,30.10,SSE,158,0.0,0.0,77,0.00,,,0.00,WUHU216HW,2013-09-01 16:02:00,
2013-09-01 12:07:00,81.1,72.8,30.10,SW,225,0.0,0.0,76,0.00,,,0.00,WUHU216HW,2013-09-01 16:07:00,
2013-09-01 12:12:00,81.6,72.9,30.09,SW,225,0.0,0.0,75,0.00,,,0.00,WUHU216HW,2013-09-01 16:12:00,
2013-09-01 12:17:00,82.2,73.0,30.09,SW,225,0.0,0.0,74,0.00,,,0.00,WUHU216HW,2013-09-01 16:17:00,
2013-09-01 12:22:00,82.5,73.1,30.09,West,270,0.0,0.0,73,0.00,,,0.00,WUHU216HW,2013-09-01 16:22:00,
2013-09-01 12:27:00,83.1,73.1,30.10,SW,225,0.0,0.0,72,0.00,,,0.00,WUHU216HW,2013-09-01 16:27:00,
2013-09-01 12:32:00,83.4,73.4,30.09,WSW,248,0.0,0.0,72,0.00,,,0.00,WUHU216HW,2013-09-01 16:32:00,
2013-09-01 12:37:00,84.0,73.4,30.09,WSW,248,0.0,0.0,71,0.00,,,0.00,WUHU216HW,2013-09-01 16:37:00,
2013-09-01 12:42:00,84.5,73.7,30.08,SW,225,0.0,0.0,70,0.00,,,0.00,WUHU216HW,2013-09-01 16:42:00,
2013-09-01 12:47:00,84.9,74.1,30.08,WSW,248,0.0,0.0,70,0.00,,,0.00,WUHU216HW,2013-09-01 16:47:00,
2013-09-01 12:52:00,85.4,73.7,30.08,SW,225,0.0,0.0,68,0.00,,,0.00,WUHU216HW,2013-09-01 16:52:00,
2013-09-01 12:57:00,85.8,74.0,30.08,West,270,0.0,0.0,68,0.00,,,0.00,WUHU216HW,2013-09-01 16:57:00,
2013-09-01 13:02:00,86.1,74.4,30.08,WSW,248,0.0,0.0,68,0.00,,,0.00,WUHU216HW,2013-09-01 17:02:00,
2013-09-01 13:07:00,86.7,74.4,30.08,WSW,248,0.0,0.0,67,0.00,,,0.00,WUHU216HW,2013-09-01 17:07:00,
2013-09-01 13:12:00,87.0,74.3,30.07,WSW,248,0.0,0.0,66,0.00,,,0.00,WUHU216HW,2013-09-01 17:12:00,
2013-09-01 13:17:00,87.4,73.7,30.07,SSE,158,0.0,0.0,64,0.00,,,0.00,WUHU216HW,2013-09-01 17:17:00,
2013-09-01 13:22:00,87.4,73.3,30.07,SE,135,0.0,0.0,63,0.00,,,0.00,WUHU216HW,2013-09-01 17:22:00,
2013-09-01 13:27:00,87.0,73.8,30.06,WSW,248,0.0,0.0,65,0.00,,,0.00,WUHU216HW,2013-09-01 17:27:00,
2013-09-01 13:32:00,87.4,73.7,30.06,SE,135,0.0,0.0,64,0.00,,,0.00,WUHU216HW,2013-09-01 17:32:00,
2013-09-01 13:37:00,87.8,74.1,30.06,SE,135,0.0,0.0,64,0.00,,,0.00,WUHU216HW,2013-09-01 17:37:00,
2013-09-01 13:42:00,87.8,73.6,30.06,WSW,248,0.0,0.0,63,0.00,,,0.00,WUHU216HW,2013-09-01 17:42:00,
2013-09-01 13:47:00,87.8,72.7,30.06,SSE,158,0.0,0.0,61,0.00,,,0.00,WUHU216HW,2013-09-01 17:47:00,
2013-09-01 13:52:00,87.8,73.4,30.06,SSW,203,0.0,0.0,63,0.00,,,0.00,WUHU216HW,2013-09-01 17:52:00,
2013-09-01 13:57:00,87.9,73.3,30.05,WSW,248,0.0,0.0,62,0.00,,,0.00,WUHU216HW,2013-09-01 17:57:00,
2013-09-01 14:02:00,88.1,73.5,30.05,South,180,0.0,0.0,62,0.00,,,0.00,WUHU216HW,2013-09-01 18:02:00,
2013-09-01 14:07:00,87.9,72.4,30.05,WSW,248,0.0,0.0,60,0.00,,,0.00,WUHU216HW,2013-09-01 18:07:00,
2013-09-01 14:12:00,87.9,72.9,30.05,WNW,293,0.0,0.0,61,0.00,,,0.00,WUHU216HW,2013-09-01 18:12:00,
2013-09-01 14:17:00,88.1,73.0,30.05,SE,135,0.0,0.0,61,0.00,,,0.00,WUHU216HW,2013-09-01 18:17:00,
2013-09-01 14:22:00,88.3,72.8,30.06,SE,135,0.0,0.0,60,0.00,,,0.00,WUHU216HW,2013-09-01 18:22:00,
2013-09-01 20:37:00,72.3,66.5,30.08,NNW,338,0.0,0.0,82,0.14,,,0.00,WUHU216HW,2013-09-02 00:37:00,
2013-09-01 20:42:00,72.1,66.3,30.08,NW,315,0.0,0.0,82,0.10,,,0.27,WUHU216HW,2013-09-02 00:42:00,
2013-09-01 20:47:00,71.9,66.5,30.08,NW,315,0.0,0.0,83,0.12,,,0.29,WUHU216HW,2013-09-02 00:47:00,
2013-09-01 20:52:00,71.6,66.1,30.08,NW,315,0.0,0.0,83,0.14,,,0.29,WUHU216HW,2013-09-02 00:52:00,
2013-09-01 20:57:00,71.4,65.9,30.08,NW,315,0.0,0.0,83,0.14,,,0.31,WUHU216HW,2013-09-02 00:57:00,
2013-09-01 21:02:00,71.4,65.9,30.09,NW,315,0.0,0.0,83,0.12,,,0.31,WUHU216HW,2013-09-02 01:02:00,
2013-09-01 21:07:00,71.2,66.1,30.09,NW,315,0.0,0.0,84,0.10,,,0.31,WUHU216HW,2013-09-02 01:07:00,
2013-09-01 21:12:00,71.0,65.9,30.09,NW,315,0.0,0.0,84,0.10,,,0.31,WUHU216HW,2013-09-02 01:12:00,
2013-09-01 21:17:00,70.8,65.7,30.09,NW,315,0.0,0.0,84,0.10,,,0.31,WUHU216HW,2013-09-02 01:17:00,
2013-09-01 21:22:00,70.7,65.9,30.09,NW,315,0.0,0.0,85,0.10,,,0.31,WUHU216HW,2013-09-02 01:22:00,
2013-09-01 21:27:00,70.5,65.7,30.09,South,180,0.0,0.0,85,0.08,,,0.31,WUHU216HW,2013-09-02 01:27:00,
2013-09-01 21:32:00,70.3,65.5,30.09,South,180,0.0,0.0,85,0.06,,,0.31,WUHU216HW,2013-09-02 01:32:00,
2013-09-01 21:37:00,70.1,65.3,30.09,South,180,0.0,0.0,85,0.04,,,0.31,WUHU216HW,2013-09-02 01:37:00,
2013-09-01 21:42:00,69.9,65.2,30.09,South,180,0.0,0.0,85,0.02,,,0.31,WUHU216HW,2013-09-02 01:42:00,
2013-09-01 21:47:00,69.8,65.0,30.09,South,180,0.0,0.0,85,0.02,,,0.31,WUHU216HW,2013-09-02 01:47:00,
2013-09-01 21:52:00,69.6,65.1,30.09,South,180,0.0,0.0,86,0.00,,,0.31,WUHU216HW,2013-09-02 01:52:00,
2013-09-01 21:57:00,69.6,65.1,30.10,South,180,0.0,0.0,86,0.00,,,0.31,WUHU216HW,2013-09-02 01:57:00,
2013-09-01 22:02:00,69.4,65.0,30.10,South,180,0.0,0.0,86,0.00,,,0.31,WUHU216HW,2013-09-02 02:02:00,
2013-09-01 22:07:00,69.2,64.8,30.10,South,180,0.0,0.0,86,0.00,,,0.31,WUHU216HW,2013-09-02 02:07:00,
2013-09-01 22:12:00,69.0,64.6,30.10,South,180,0.0,0.0,86,0.00,,,0.31,WUHU216HW,2013-09-02 02:12:00,
2013-09-01 22:17:00,69.0,64.6,30.10,South,180,0.0,0.0,86,0.00,,,0.31,WUHU216HW,2013-09-02 02:17:00,
2013-09-01 22:22:00,68.9,64.5,30.10,South,180,0.0,0.0,86,0.00,,,0.31,WUHU216HW,2013-09-02 02:22:00,
2013-09-01 22:27:00,68.7,64.3,30.11,South,180,0.0,0.0,86,0.00,,,0.31,WUHU216HW,2013-09-02 02:27:00,
2013-09-01 22:32:00,68.7,64.3,30.11,South,180,0.0,0.0,86,0.00,,,0.31,WUHU216HW,2013-09-02 02:32:00,
2013-09-01 22:37:00,68.5,64.1,30.11,South,180,0.0,0.0,86,0.00,,,0.31,WUHU216HW,2013-09-02 02:37:00,
2013-09-01 22:42:00,68.5,64.1,30.11,South,180,0.0,0.0,86,0.00,,,0.31,WUHU216HW,2013-09-02 02:42:00,
2013-09-01 22:47:00,68.3,63.9,30.12,South,180,0.0,0.0,86,0.00,,,0.31,WUHU216HW,2013-09-02 02:47:00,
2013-09-01 22:52:00,68.1,63.8,30.11,South,180,0.0,0.0,86,0.00,,,0.31,WUHU216HW,2013-09-02 02:52:00,
2013-09-01 22:57:00,68.1,63.8,30.11,South,180,0.0,0.0,86,0.00,,,0.31,WUHU216HW,2013-09-02 02:57:00,
2013-09-01 23:02:00,67.8,63.4,30.11,South,180,0.0,0.0,86,0.00,,,0.31,WUHU216HW,2013-09-02 03:02:00,
2013-09-01 23:07:00,67.8,63.7,30.11,South,180,0.0,0.0,87,0.00,,,0.31,WUHU216HW,2013-09-02 03:07:00,
2013-09-01 23:12:00,67.8,63.7,30.11,South,180,0.0,0.0,87,0.00,,,0.31,WUHU216HW,2013-09-02 03:12:00,
2013-09-01 23:17:00,67.6,63.6,30.11,South,180,0.0,0.0,87,0.00,,,0.31,WUHU216HW,2013-09-02 03:17:00,
2013-09-01 23:22:00,67.6,63.6,30.11,South,180,0.0,0.0,87,0.00,,,0.31,WUHU216HW,2013-09-02 03:22:00,
2013-09-01 23:27:00,67.6,63.6,30.11,South,180,0.0,0.0,87,0.00,,,0.31,WUHU216HW,2013-09-02 03:27:00,
2013-09-01 23:32:00,67.2,63.2,30.11,South,180,0.0,0.0,87,0.00,,,0.31,WUHU216HW,2013-09-02 03:32:00,
2013-09-01 23:37:00,67.2,63.2,30.11,South,180,0.0,0.0,87,0.00,,,0.31,WUHU216HW,2013-09-02 03:37:00,
2013-09-01 23:42:00,67.2,63.5,30.11,South,180,0.0,0.0,88,0.00,,,0.31,WUHU216HW,2013-09-02 03:42:00,
2013-09-01 23:47:00,67.1,63.3,30.11,South,180,0.0,0.0,88,0.00,,,0.31,WUHU216HW,2013-09-02 03:47:00,
2013-09-01 23:52:00,67.1,63.3,30.11,South,180,0.0,0.0,88,0.00,,,0.31,WUHU216HW,2013-09-02 03:52:00,
2013-09-01 23:57:00,67.1,63.3,30.11,South,180,0.0,0.0,88,0.00,,,0.31,WUHU216HW,2013-09-02 03:57:00,